sensor_id;sensor_type;location;lat;lon;timestamp;pressure;altitude;pressure_sealevel;temperature;humidity
75006;BME280;63553;51.814;4.600;2022-12-07T00:01:22;102062.59;;;10.75;90.47
75006;BME280;63553;51.814;4.600;2022-12-07T00:03:50;102065.38;;;10.75;90.61
75006;BME280;63553;51.814;4.600;2022-12-07T00:06:16;102053.44;;;10.75;90.39
75006;BME280;63553;51.814;4.600;2022-12-07T00:08:42;102050.34;;;10.76;90.56
75006;BME280;63553;51.814;4.600;2022-12-07T00:13:36;102049.50;;;10.76;90.63
75006;BME280;63553;51.814;4.600;2022-12-07T00:16:07;102050.06;;;10.78;90.72
75006;BME280;63553;51.814;4.600;2022-12-07T00:18:33;102052.00;;;10.77;90.69
75006;BME280;63553;51.814;4.600;2022-12-07T00:21:09;102056.75;;;10.77;90.58
75006;BME280;63553;51.814;4.600;2022-12-07T00:23:34;102051.75;;;10.74;90.70
75006;BME280;63553;51.814;4.600;2022-12-07T00:26:05;102058.41;;;10.78;90.42
75006;BME280;63553;51.814;4.600;2022-12-07T00:28:30;102053.97;;;10.77;90.54
75006;BME280;63553;51.814;4.600;2022-12-07T00:31:23;102045.63;;;10.77;90.78
75006;BME280;63553;51.814;4.600;2022-12-07T00:33:49;102038.09;;;10.77;90.60
75006;BME280;63553;51.814;4.600;2022-12-07T00:36:17;102030.59;;;10.78;90.66
75006;BME280;63553;51.814;4.600;2022-12-07T00:38:43;102030.88;;;10.76;90.63
75006;BME280;63553;51.814;4.600;2022-12-07T00:41:17;102026.97;;;10.77;90.73
75006;BME280;63553;51.814;4.600;2022-12-07T00:43:44;102019.22;;;10.74;90.60
75006;BME280;63553;51.814;4.600;2022-12-07T00:46:09;102033.97;;;10.75;90.66
75006;BME280;63553;51.814;4.600;2022-12-07T00:48:35;102032.81;;;10.76;90.65
75006;BME280;63553;51.814;4.600;2022-12-07T00:51:01;102032.81;;;10.76;90.52
75006;BME280;63553;51.814;4.600;2022-12-07T00:53:27;102027.56;;;10.74;90.78
75006;BME280;63553;51.814;4.600;2022-12-07T00:55:52;102035.59;;;10.76;90.51
75006;BME280;63553;51.814;4.600;2022-12-07T00:58:18;102031.97;;;10.75;90.62
75006;BME280;63553;51.814;4.600;2022-12-07T01:00:44;102035.91;;;10.74;90.58
75006;BME280;63553;51.814;4.600;2022-12-07T01:03:12;102030.63;;;10.73;90.66
75006;BME280;63553;51.814;4.600;2022-12-07T01:05:38;102036.19;;;10.73;90.80
75006;BME280;63553;51.814;4.600;2022-12-07T01:08:04;102027.59;;;10.69;90.54
75006;BME280;63553;51.814;4.600;2022-12-07T01:10:29;102040.09;;;10.72;90.41
75006;BME280;63553;51.814;4.600;2022-12-07T01:12:56;102032.03;;;10.70;90.57
75006;BME280;63553;51.814;4.600;2022-12-07T01:15:22;102030.38;;;10.69;90.50
75006;BME280;63553;51.814;4.600;2022-12-07T01:17:47;102028.75;;;10.68;90.52
75006;BME280;63553;51.814;4.600;2022-12-07T01:20:13;102034.31;;;10.68;90.51
75006;BME280;63553;51.814;4.600;2022-12-07T01:22:40;102033.16;;;10.69;90.62
75006;BME280;63553;51.814;4.600;2022-12-07T01:25:07;102029.56;;;10.69;90.20
75006;BME280;63553;51.814;4.600;2022-12-07T01:27:33;102017.66;;;10.63;90.28
75006;BME280;63553;51.814;4.600;2022-12-07T01:29:59;102027.38;;;10.66;90.34
75006;BME280;63553;51.814;4.600;2022-12-07T01:32:24;102033.75;;;10.66;90.41
75006;BME280;63553;51.814;4.600;2022-12-07T01:34:49;102024.03;;;10.64;90.41
75006;BME280;63553;51.814;4.600;2022-12-07T01:37:15;102025.72;;;10.65;90.44
75006;BME280;63553;51.814;4.600;2022-12-07T01:39:40;102028.78;;;10.63;90.51
75006;BME280;63553;51.814;4.600;2022-12-07T01:42:10;102036.59;;;10.61;90.49
75006;BME280;63553;51.814;4.600;2022-12-07T01:47:39;102023.78;;;10.60;90.42
75006;BME280;63553;51.814;4.600;2022-12-07T01:50:05;102035.75;;;10.60;90.42
75006;BME280;63553;51.814;4.600;2022-12-07T01:52:33;102031.03;;;10.61;90.46
75006;BME280;63553;51.814;4.600;2022-12-07T01:55:02;102032.44;;;10.58;90.39
75006;BME280;63553;51.814;4.600;2022-12-07T01:57:30;102027.47;;;10.55;90.35
75006;BME280;63553;51.814;4.600;2022-12-07T01:59:57;102019.66;;;10.57;90.17
75006;BME280;63553;51.814;4.600;2022-12-07T02:02:27;102023.25;;;10.58;90.23
75006;BME280;63553;51.814;4.600;2022-12-07T02:04:55;102028.00;;;10.57;90.18
75006;BME280;63553;51.814;4.600;2022-12-07T02:07:23;102028.00;;;10.57;90.41
75006;BME280;63553;51.814;4.600;2022-12-07T02:09:48;102029.13;;;10.56;90.17
75006;BME280;63553;51.814;4.600;2022-12-07T02:12:14;102035.53;;;10.57;90.00
75006;BME280;63553;51.814;4.600;2022-12-07T02:14:39;102035.81;;;10.55;90.03
75006;BME280;63553;51.814;4.600;2022-12-07T02:28:25;102037.50;;;10.51;90.29
75006;BME280;63553;51.814;4.600;2022-12-07T02:30:55;102020.53;;;10.53;90.22
75006;BME280;63553;51.814;4.600;2022-12-07T02:34:21;102016.09;;;10.52;90.23
75006;BME280;63553;51.814;4.600;2022-12-07T02:36:30;102006.41;;;10.49;90.24
75006;BME280;63553;51.814;4.600;2022-12-07T02:39:33;102011.69;;;10.51;90.13
75006;BME280;63553;51.814;4.600;2022-12-07T02:42:02;102014.47;;;10.51;90.19
75006;BME280;63553;51.814;4.600;2022-12-07T02:44:32;102006.41;;;10.49;90.09
75006;BME280;63553;51.814;4.600;2022-12-07T02:47:01;102014.72;;;10.49;90.15
75006;BME280;63553;51.814;4.600;2022-12-07T02:49:28;102006.41;;;10.49;90.08
75006;BME280;63553;51.814;4.600;2022-12-07T02:51:54;102010.84;;;10.50;90.20
75006;BME280;63553;51.814;4.600;2022-12-07T02:54:20;101999.72;;;10.50;89.95
75006;BME280;63553;51.814;4.600;2022-12-07T02:56:50;102001.94;;;10.48;90.11
75006;BME280;63553;51.814;4.600;2022-12-07T03:02:02;102010.28;;;10.48;90.25
75006;BME280;63553;51.814;4.600;2022-12-07T03:05:01;102015.84;;;10.48;90.40
75006;BME280;63553;51.814;4.600;2022-12-07T03:07:43;102014.22;;;10.47;90.26
75006;BME280;63553;51.814;4.600;2022-12-07T03:13:00;102021.19;;;10.45;90.03
75006;BME280;63553;51.814;4.600;2022-12-07T03:18:25;102026.44;;;10.46;90.33
75006;BME280;63553;51.814;4.600;2022-12-07T03:20:55;102022.81;;;10.46;89.85
75006;BME280;63553;51.814;4.600;2022-12-07T03:23:23;102014.78;;;10.44;90.20
75006;BME280;63553;51.814;4.600;2022-12-07T03:25:55;102022.00;;;10.45;89.92
75006;BME280;63553;51.814;4.600;2022-12-07T03:28:24;102017.56;;;10.44;90.09
75006;BME280;63553;51.814;4.600;2022-12-07T03:30:56;102017.56;;;10.44;90.17
75006;BME280;63553;51.814;4.600;2022-12-07T03:41:11;101999.53;;;10.42;89.96
75006;BME280;63553;51.814;4.600;2022-12-07T03:43:39;102006.72;;;10.43;89.74
75006;BME280;63553;51.814;4.600;2022-12-07T03:48:59;102000.88;;;10.44;89.88
75006;BME280;63553;51.814;4.600;2022-12-07T03:51:41;101999.22;;;10.43;89.51
75006;BME280;63553;51.814;4.600;2022-12-07T03:54:39;101999.22;;;10.43;89.89
75006;BME280;63553;51.814;4.600;2022-12-07T03:57:06;101998.97;;;10.40;89.78
75006;BME280;63553;51.814;4.600;2022-12-07T03:59:33;102000.13;;;10.39;89.76
75006;BME280;63553;51.814;4.600;2022-12-07T04:02:05;102006.72;;;10.43;89.85
75006;BME280;63553;51.814;4.600;2022-12-07T04:04:31;102006.72;;;10.43;89.92
75006;BME280;63553;51.814;4.600;2022-12-07T04:06:56;101996.19;;;10.40;89.79
75006;BME280;63553;51.814;4.600;2022-12-07T04:09:22;101997.56;;;10.42;89.84
75006;BME280;63553;51.814;4.600;2022-12-07T04:11:47;102005.91;;;10.42;89.29
75006;BME280;63553;51.814;4.600;2022-12-07T04:14:13;102003.66;;;10.44;89.83
75006;BME280;63553;51.814;4.600;2022-12-07T04:16:46;101998.69;;;10.41;89.87
75006;BME280;63553;51.814;4.600;2022-12-07T04:19:12;101997.56;;;10.42;89.85
75006;BME280;63553;51.814;4.600;2022-12-07T04:21:38;101995.34;;;10.44;89.76
75006;BME280;63553;51.814;4.600;2022-12-07T04:24:03;101995.34;;;10.44;89.86
75006;BME280;63553;51.814;4.600;2022-12-07T04:26:29;101995.59;;;10.43;89.81
75006;BME280;63553;51.814;4.600;2022-12-07T04:28:54;101982.84;;;10.42;90.00
75006;BME280;63553;51.814;4.600;2022-12-07T04:31:20;101990.34;;;10.41;89.72
75006;BME280;63553;51.814;4.600;2022-12-07T04:33:45;101997.56;;;10.42;89.92
75006;BME280;63553;51.814;4.600;2022-12-07T04:36:10;101990.63;;;10.40;89.78
75006;BME280;63553;51.814;4.600;2022-12-07T04:38:36;101992.56;;;10.44;89.81
75006;BME280;63553;51.814;4.600;2022-12-07T04:41:08;101985.91;;;10.40;89.89
75006;BME280;63553;51.814;4.600;2022-12-07T04:43:35;101983.38;;;10.44;89.84
75006;BME280;63553;51.814;4.600;2022-12-07T04:46:01;101980.88;;;10.42;90.02
75006;BME280;63553;51.814;4.600;2022-12-07T04:48:27;101981.19;;;10.41;89.84
75006;BME280;63553;51.814;4.600;2022-12-07T04:50:52;101974.78;;;10.40;89.60
75006;BME280;63553;51.814;4.600;2022-12-07T04:53:18;101974.78;;;10.40;89.76
75006;BME280;63553;51.814;4.600;2022-12-07T04:55:45;101973.13;;;10.39;89.76
75006;BME280;63553;51.814;4.600;2022-12-07T04:58:11;101967.88;;;10.38;89.69
75006;BME280;63553;51.814;4.600;2022-12-07T05:00:37;101967.56;;;10.39;89.70
75006;BME280;63553;51.814;4.600;2022-12-07T05:03:02;101965.91;;;10.38;89.69
75006;BME280;63553;51.814;4.600;2022-12-07T05:05:27;101956.75;;;10.38;89.83
75006;BME280;63553;51.814;4.600;2022-12-07T05:07:53;101958.84;;;10.51;89.33
75006;BME280;63553;51.814;4.600;2022-12-07T05:10:19;101958.44;;;10.63;89.85
75006;BME280;63553;51.814;4.600;2022-12-07T05:12:44;101959.47;;;10.67;89.49
75006;BME280;63553;51.814;4.600;2022-12-07T05:15:10;101965.03;;;10.67;89.29
75006;BME280;63553;51.814;4.600;2022-12-07T05:17:35;101958.97;;;10.65;89.58
75006;BME280;63553;51.814;4.600;2022-12-07T05:20:01;101963.16;;;10.62;89.44
75006;BME280;63553;51.814;4.600;2022-12-07T05:22:26;101957.34;;;10.58;89.56
75006;BME280;63553;51.814;4.600;2022-12-07T05:24:54;101948.78;;;10.55;89.55
75006;BME280;63553;51.814;4.600;2022-12-07T05:27:19;101962.44;;;10.51;89.75
75006;BME280;63553;51.814;4.600;2022-12-07T05:29:45;101957.19;;;10.50;89.82
75006;BME280;63553;51.814;4.600;2022-12-07T05:32:10;101967.47;;;10.49;89.67
75006;BME280;63553;51.814;4.600;2022-12-07T05:34:35;101971.16;;;10.45;89.62
75006;BME280;63553;51.814;4.600;2022-12-07T05:37:01;101979.19;;;10.46;89.62
75006;BME280;63553;51.814;4.600;2022-12-07T05:39:26;101973.09;;;10.44;89.83
75006;BME280;63553;51.814;4.600;2022-12-07T05:41:51;101960.88;;;10.40;89.56
75006;BME280;63553;51.814;4.600;2022-12-07T05:44:35;101968.41;;;10.40;89.95
75006;BME280;63553;51.814;4.600;2022-12-07T05:47:00;101967.03;;;10.37;89.69
75006;BME280;63553;51.814;4.600;2022-12-07T05:49:26;101969.81;;;10.37;89.71
75006;BME280;63553;51.814;4.600;2022-12-07T05:51:51;101957.84;;;10.37;90.12
75006;BME280;63553;51.814;4.600;2022-12-07T05:54:17;101963.19;;;10.33;89.43
75006;BME280;63553;51.814;4.600;2022-12-07T05:56:42;101960.69;;;10.32;89.66
75006;BME280;63553;51.814;4.600;2022-12-07T05:59:08;101964.31;;;10.32;89.69
75006;BME280;63553;51.814;4.600;2022-12-07T06:01:56;101967.09;;;10.32;89.67
75006;BME280;63553;51.814;4.600;2022-12-07T06:04:22;101961.00;;;10.30;89.78
75006;BME280;63553;51.814;4.600;2022-12-07T06:06:48;101957.41;;;10.30;89.43
75006;BME280;63553;51.814;4.600;2022-12-07T06:09:14;101963.78;;;10.30;89.52
75006;BME280;63553;51.814;4.600;2022-12-07T06:11:40;101956.84;;;10.28;89.44
75006;BME280;63553;51.814;4.600;2022-12-07T06:14:24;101956.03;;;10.27;89.50
75006;BME280;63553;51.814;4.600;2022-12-07T06:16:50;101953.25;;;10.27;89.26
75006;BME280;63553;51.814;4.600;2022-12-07T06:19:16;101953.84;;;10.24;89.41
75006;BME280;63553;51.814;4.600;2022-12-07T06:21:41;101964.38;;;10.27;89.35
75006;BME280;63553;51.814;4.600;2022-12-07T06:24:09;101961.03;;;10.25;89.33
75006;BME280;63553;51.814;4.600;2022-12-07T06:26:35;101964.66;;;10.26;89.35
75006;BME280;63553;51.814;4.600;2022-12-07T06:29:01;101962.19;;;10.24;89.41
75006;BME280;63553;51.814;4.600;2022-12-07T06:31:26;101959.69;;;10.23;89.63
75006;BME280;63553;51.814;4.600;2022-12-07T06:33:51;101962.47;;;10.23;89.45
75006;BME280;63553;51.814;4.600;2022-12-07T06:36:21;101961.63;;;10.22;89.43
75006;BME280;63553;51.814;4.600;2022-12-07T06:38:47;101966.06;;;10.23;89.35
75006;BME280;63553;51.814;4.600;2022-12-07T06:41:12;101950.81;;;10.21;89.32
75006;BME280;63553;51.814;4.600;2022-12-07T06:43:37;101966.34;;;10.22;88.90
75006;BME280;63553;51.814;4.600;2022-12-07T06:46:03;101965.53;;;10.21;89.13
75006;BME280;63553;51.814;4.600;2022-12-07T06:48:28;101966.94;;;10.19;89.81
75006;BME280;63553;51.814;4.600;2022-12-07T06:50:54;101958.91;;;10.17;89.35
75006;BME280;63553;51.814;4.600;2022-12-07T06:53:19;101963.03;;;10.20;89.24
75006;BME280;63553;51.814;4.600;2022-12-07T06:55:44;101968.00;;;10.23;88.57
75006;BME280;63553;51.814;4.600;2022-12-07T06:58:10;101958.81;;;10.27;87.94
75006;BME280;63553;51.814;4.600;2022-12-07T07:00:35;101962.13;;;10.29;87.52
75006;BME280;63553;51.814;4.600;2022-12-07T07:03:01;101963.22;;;10.28;87.44
75006;BME280;63553;51.814;4.600;2022-12-07T07:05:26;101972.41;;;10.29;87.73
75006;BME280;63553;51.814;4.600;2022-12-07T07:07:51;101964.38;;;10.27;87.84
75006;BME280;63553;51.814;4.600;2022-12-07T07:10:17;101962.72;;;10.26;88.01
75006;BME280;63553;51.814;4.600;2022-12-07T07:12:42;101966.59;;;10.25;88.26
75006;BME280;63553;51.814;4.600;2022-12-07T07:15:08;101960.19;;;10.25;88.16
75006;BME280;63553;51.814;4.600;2022-12-07T07:17:34;101960.78;;;10.22;88.22
75006;BME280;63553;51.814;4.600;2022-12-07T07:19:59;101963.03;;;10.20;88.38
75006;BME280;63553;51.814;4.600;2022-12-07T07:22:24;101965.53;;;10.21;88.38
75006;BME280;63553;51.814;4.600;2022-12-07T07:24:49;101969.44;;;10.20;88.40
75006;BME280;63553;51.814;4.600;2022-12-07T07:27:15;101970.28;;;10.21;88.42
75006;BME280;63553;51.814;4.600;2022-12-07T07:29:40;101968.06;;;10.18;88.48
75006;BME280;63553;51.814;4.600;2022-12-07T07:32:05;101973.31;;;10.19;88.41
75006;BME280;63553;51.814;4.600;2022-12-07T07:34:32;101973.31;;;10.19;88.57
75006;BME280;63553;51.814;4.600;2022-12-07T07:36:57;101972.50;;;10.19;88.77
75006;BME280;63553;51.814;4.600;2022-12-07T07:39:23;101977.97;;;5.16;75.88
75006;BME280;63553;51.814;4.600;2022-12-07T07:41:48;101977.84;;;2.85;85.78
75006;BME280;63553;51.814;4.600;2022-12-07T07:44:13;101988.69;;;2.05;89.59
75006;BME280;63553;51.814;4.600;2022-12-07T07:46:39;102000.81;;;1.97;91.16
75006;BME280;63553;51.814;4.600;2022-12-07T07:49:04;101995.88;;;1.64;92.43
75006;BME280;63553;51.814;4.600;2022-12-07T07:51:29;101994.94;;;1.59;92.75
75006;BME280;63553;51.814;4.600;2022-12-07T07:53:55;101996.22;;;1.56;93.06
75006;BME280;63553;51.814;4.600;2022-12-07T07:56:20;101994.66;;;1.49;93.11
75006;BME280;63553;51.814;4.600;2022-12-07T07:58:45;101994.91;;;1.47;93.46
75006;BME280;63553;51.814;4.600;2022-12-07T08:01:11;102002.88;;;1.49;93.47
75006;BME280;63553;51.814;4.600;2022-12-07T08:03:39;102001.22;;;1.48;93.23
75006;BME280;63553;51.814;4.600;2022-12-07T08:06:04;102006.63;;;1.66;94.01
75006;BME280;63553;51.814;4.600;2022-12-07T08:08:30;101999.13;;;1.73;94.28
75006;BME280;63553;51.814;4.600;2022-12-07T08:10:56;101997.53;;;1.54;93.79
75006;BME280;63553;51.814;4.600;2022-12-07T08:13:25;101991.56;;;1.45;93.54
75006;BME280;63553;51.814;4.600;2022-12-07T08:15:50;101995.75;;;1.59;93.65
75006;BME280;63553;51.814;4.600;2022-12-07T08:18:16;101997.31;;;1.67;93.43
75006;BME280;63553;51.814;4.600;2022-12-07T08:20:41;102001.03;;;1.73;93.86
75006;BME280;63553;51.814;4.600;2022-12-07T08:23:08;102005.44;;;1.74;93.76
75006;BME280;63553;51.814;4.600;2022-12-07T08:25:33;102007.28;;;2.03;94.64
75006;BME280;63553;51.814;4.600;2022-12-07T08:27:59;102010.84;;;2.15;93.46
75006;BME280;63553;51.814;4.600;2022-12-07T08:30:26;102012.38;;;2.69;93.15
75006;BME280;63553;51.814;4.600;2022-12-07T08:32:52;102011.78;;;2.67;92.40
75006;BME280;63553;51.814;4.600;2022-12-07T08:35:17;102009.50;;;2.75;91.46
75006;BME280;63553;51.814;4.600;2022-12-07T08:37:43;102008.03;;;2.96;92.84
75006;BME280;63553;51.814;4.600;2022-12-07T08:40:10;102007.78;;;3.26;89.34
75006;BME280;63553;51.814;4.600;2022-12-07T08:42:36;102005.22;;;3.08;91.11
75006;BME280;63553;51.814;4.600;2022-12-07T08:45:13;102005.56;;;3.84;88.52
75006;BME280;63553;51.814;4.600;2022-12-07T08:47:52;102004.38;;;3.80;86.95
75006;BME280;63553;51.814;4.600;2022-12-07T08:50:20;102004.06;;;3.77;88.06
75006;BME280;63553;51.814;4.600;2022-12-07T08:52:54;102007.41;;;4.12;87.20
75006;BME280;63553;51.814;4.600;2022-12-07T08:55:21;101999.41;;;4.49;85.19
75006;BME280;63553;51.814;4.600;2022-12-07T08:57:47;102002.16;;;4.49;85.64
75006;BME280;63553;51.814;4.600;2022-12-07T09:00:13;102001.94;;;4.72;84.47
75006;BME280;63553;51.814;4.600;2022-12-07T09:02:39;102006.09;;;5.67;81.80
75006;BME280;63553;51.814;4.600;2022-12-07T09:05:04;102007.53;;;4.99;84.10
75006;BME280;63553;51.814;4.600;2022-12-07T09:07:32;102000.84;;;4.73;86.27
75006;BME280;63553;51.814;4.600;2022-12-07T09:09:58;101996.50;;;5.21;82.25
75006;BME280;63553;51.814;4.600;2022-12-07T09:12:23;102002.53;;;4.74;84.65
75006;BME280;63553;51.814;4.600;2022-12-07T09:14:49;101994.44;;;4.68;85.74
75006;BME280;63553;51.814;4.600;2022-12-07T09:17:14;101996.38;;;4.67;85.17
75006;BME280;63553;51.814;4.600;2022-12-07T09:19:39;101994.47;;;4.89;85.55
75006;BME280;63553;51.814;4.600;2022-12-07T09:22:06;102003.25;;;4.86;85.57
75006;BME280;63553;51.814;4.600;2022-12-07T09:24:32;101996.19;;;4.95;87.27
75006;BME280;63553;51.814;4.600;2022-12-07T09:26:58;101989.19;;;5.31;85.19
75006;BME280;63553;51.814;4.600;2022-12-07T09:29:24;101992.31;;;5.40;84.34
75006;BME280;63553;51.814;4.600;2022-12-07T09:31:50;101990.44;;;5.45;83.99
75006;BME280;63553;51.814;4.600;2022-12-07T09:34:15;101994.09;;;5.56;84.65
75006;BME280;63553;51.814;4.600;2022-12-07T09:36:41;101993.22;;;5.77;85.32
75006;BME280;63553;51.814;4.600;2022-12-07T09:39:07;101988.59;;;6.14;82.15
75006;BME280;63553;51.814;4.600;2022-12-07T09:41:33;101988.22;;;5.74;82.90
75006;BME280;63553;51.814;4.600;2022-12-07T09:44:05;101996.13;;;5.39;87.12
75006;BME280;63553;51.814;4.600;2022-12-07T09:46:35;101988.25;;;5.79;85.26
75006;BME280;63553;51.814;4.600;2022-12-07T09:49:02;101983.13;;;5.88;84.30
75006;BME280;63553;51.814;4.600;2022-12-07T09:51:27;101989.09;;;5.80;83.77
75006;BME280;63553;51.814;4.600;2022-12-07T09:53:54;102005.91;;;6.05;83.47
75006;BME280;63553;51.814;4.600;2022-12-07T09:56:21;102001.16;;;6.00;84.68
75006;BME280;63553;51.814;4.600;2022-12-07T09:58:48;102007.03;;;5.82;84.10
75006;BME280;63553;51.814;4.600;2022-12-07T10:01:16;102005.50;;;5.65;85.01
75006;BME280;63553;51.814;4.600;2022-12-07T10:06:30;101993.34;;;5.34;85.95
75006;BME280;63553;51.814;4.600;2022-12-07T10:08:55;101995.16;;;5.50;86.19
75006;BME280;63553;51.814;4.600;2022-12-07T10:11:21;101978.06;;;5.80;85.56
75006;BME280;63553;51.814;4.600;2022-12-07T10:13:49;101983.78;;;5.73;85.01
75006;BME280;63553;51.814;4.600;2022-12-07T10:18:49;101981.34;;;5.77;85.17
75006;BME280;63553;51.814;4.600;2022-12-07T10:21:22;101980.78;;;5.75;84.31
75006;BME280;63553;51.814;4.600;2022-12-07T10:24:05;101987.50;;;5.57;86.03
75006;BME280;63553;51.814;4.600;2022-12-07T10:31:40;101972.28;;;5.81;86.43
75006;BME280;63553;51.814;4.600;2022-12-07T10:34:35;101974.16;;;5.76;86.70
75006;BME280;63553;51.814;4.600;2022-12-07T10:37:26;101968.53;;;6.29;85.90
75006;BME280;63553;51.814;4.600;2022-12-07T10:39:57;101969.22;;;6.56;85.09
75006;BME280;63553;51.814;4.600;2022-12-07T10:42:27;101957.66;;;6.59;83.08
75006;BME280;63553;51.814;4.600;2022-12-07T10:53:28;101948.78;;;9.15;92.77
75006;BME280;63553;51.814;4.600;2022-12-07T11:09:00;101923.81;;;10.74;83.14
75006;BME280;63553;51.814;4.600;2022-12-07T11:17:07;101910.09;;;11.38;85.93
75006;BME280;63553;51.814;4.600;2022-12-07T11:22:39;101907.75;;;11.83;84.63
75006;BME280;63553;51.814;4.600;2022-12-07T11:25:20;101906.00;;;10.75;78.87
75006;BME280;63553;51.814;4.600;2022-12-07T11:28:10;101896.13;;;10.11;69.76
75006;BME280;63553;51.814;4.600;2022-12-07T11:33:17;101890.00;;;11.41;83.24
75006;BME280;63553;51.814;4.600;2022-12-07T11:38:41;101885.13;;;9.33;74.71
75006;BME280;63553;51.814;4.600;2022-12-07T11:41:08;101882.09;;;8.86;77.06
75006;BME280;63553;51.814;4.600;2022-12-07T11:44:02;101886.22;;;8.19;76.67
75006;BME280;63553;51.814;4.600;2022-12-07T11:47:05;101881.88;;;7.53;79.02
75006;BME280;63553;51.814;4.600;2022-12-07T11:52:13;101871.59;;;7.89;79.52
75006;BME280;63553;51.814;4.600;2022-12-07T11:54:43;101874.09;;;7.70;79.24
75006;BME280;63553;51.814;4.600;2022-12-07T11:57:42;101872.16;;;8.80;85.99
75006;BME280;63553;51.814;4.600;2022-12-07T12:00:17;101864.13;;;8.78;76.48
75006;BME280;63553;51.814;4.600;2022-12-07T12:03:01;101865.94;;;8.44;77.91
75006;BME280;63553;51.814;4.600;2022-12-07T12:05:29;101871.78;;;8.43;77.84
75006;BME280;63553;51.814;4.600;2022-12-07T12:08:16;101864.06;;;8.19;77.47
75006;BME280;63553;51.814;4.600;2022-12-07T12:10:57;101861.41;;;8.68;85.65
75006;BME280;63553;51.814;4.600;2022-12-07T12:14:09;101866.75;;;9.42;85.50
75006;BME280;63553;51.814;4.600;2022-12-07T12:19:19;101870.81;;;9.84;71.92
75006;BME280;63553;51.814;4.600;2022-12-07T12:21:47;101884.13;;;9.87;76.10
75006;BME280;63553;51.814;4.600;2022-12-07T12:24:23;101873.88;;;10.11;79.10
75006;BME280;63553;51.814;4.600;2022-12-07T12:26:52;101879.78;;;9.76;81.03
75006;BME280;63553;51.814;4.600;2022-12-07T12:29:27;101876.34;;;9.21;81.77
75006;BME280;63553;51.814;4.600;2022-12-07T12:32:13;101872.34;;;8.29;84.75
75006;BME280;63553;51.814;4.600;2022-12-07T12:35:30;101861.66;;;7.62;77.76
75006;BME280;63553;51.814;4.600;2022-12-07T12:40:54;101870.28;;;6.48;81.08
75006;BME280;63553;51.814;4.600;2022-12-07T12:43:39;101861.69;;;6.40;82.28
75006;BME280;63553;51.814;4.600;2022-12-07T12:46:38;101863.38;;;6.46;83.91
75006;BME280;63553;51.814;4.600;2022-12-07T12:51:43;101849.09;;;6.07;82.57
75006;BME280;63553;51.814;4.600;2022-12-07T12:56:44;101845.53;;;5.70;83.77
75006;BME280;63553;51.814;4.600;2022-12-07T12:59:31;101839.63;;;5.56;84.64
75006;BME280;63553;51.814;4.600;2022-12-07T13:04:51;101839.38;;;5.57;85.62
75006;BME280;63553;51.814;4.600;2022-12-07T13:15:55;101830.69;;;6.23;83.03
75006;BME280;63553;51.814;4.600;2022-12-07T13:29:16;101807.63;;;5.92;84.84
75006;BME280;63553;51.814;4.600;2022-12-07T13:31:45;101802.41;;;5.95;85.22
75006;BME280;63553;51.814;4.600;2022-12-07T13:36:55;101807.19;;;5.73;85.04
75006;BME280;63553;51.814;4.600;2022-12-07T13:39:24;101792.31;;;5.79;84.75
75006;BME280;63553;51.814;4.600;2022-12-07T13:41:55;101796.22;;;5.83;86.82
75006;BME280;63553;51.814;4.600;2022-12-07T13:44:23;101789.22;;;6.12;85.39
75006;BME280;63553;51.814;4.600;2022-12-07T13:46:53;101794.78;;;6.18;85.37
75006;BME280;63553;51.814;4.600;2022-12-07T13:49:27;101793.03;;;7.59;92.01
75006;BME280;63553;51.814;4.600;2022-12-07T13:51:54;101794.25;;;8.22;92.13
75006;BME280;63553;51.814;4.600;2022-12-07T13:54:21;101788.44;;;8.19;83.59
75006;BME280;63553;51.814;4.600;2022-12-07T13:56:52;101783.59;;;7.70;79.73
75006;BME280;63553;51.814;4.600;2022-12-07T13:59:18;101781.59;;;6.45;81.30
75006;BME280;63553;51.814;4.600;2022-12-07T14:01:46;101777.00;;;7.16;82.37
75006;BME280;63553;51.814;4.600;2022-12-07T14:04:35;101772.09;;;6.10;81.73
75006;BME280;63553;51.814;4.600;2022-12-07T14:07:18;101773.13;;;5.52;84.86
75006;BME280;63553;51.814;4.600;2022-12-07T14:09:52;101776.09;;;5.41;85.65
75006;BME280;63553;51.814;4.600;2022-12-07T14:12:18;101769.38;;;5.27;86.48
75006;BME280;63553;51.814;4.600;2022-12-07T14:14:47;101760.16;;;5.53;86.99
75006;BME280;63553;51.814;4.600;2022-12-07T14:17:21;101758.72;;;5.40;86.88
75006;BME280;63553;51.814;4.600;2022-12-07T14:20:03;101759.47;;;5.31;86.47
75006;BME280;63553;51.814;4.600;2022-12-07T14:22:37;101760.78;;;5.23;87.07
75006;BME280;63553;51.814;4.600;2022-12-07T14:27:38;101757.78;;;5.25;86.70
75006;BME280;63553;51.814;4.600;2022-12-07T14:30:04;101753.53;;;5.12;87.76
75006;BME280;63553;51.814;4.600;2022-12-07T14:32:31;101753.00;;;5.10;87.81
75006;BME280;63553;51.814;4.600;2022-12-07T14:35:02;101745.63;;;5.26;87.75
75006;BME280;63553;51.814;4.600;2022-12-07T14:37:29;101750.56;;;5.19;87.81
75006;BME280;63553;51.814;4.600;2022-12-07T14:39:55;101745.72;;;5.36;88.46
75006;BME280;63553;51.814;4.600;2022-12-07T14:42:23;101743.81;;;5.36;88.05
75006;BME280;63553;51.814;4.600;2022-12-07T14:44:49;101749.88;;;5.38;87.27
75006;BME280;63553;51.814;4.600;2022-12-07T14:47:14;101746.66;;;5.51;88.26
75006;BME280;63553;51.814;4.600;2022-12-07T14:49:40;101733.53;;;5.74;86.88
75006;BME280;63553;51.814;4.600;2022-12-07T14:52:11;101741.75;;;6.15;87.26
75006;BME280;63553;51.814;4.600;2022-12-07T14:54:38;101736.22;;;6.05;85.96
75006;BME280;63553;51.814;4.600;2022-12-07T14:57:03;101724.56;;;5.93;83.96
75006;BME280;63553;51.814;4.600;2022-12-07T14:59:29;101740.81;;;5.90;84.71
75006;BME280;63553;51.814;4.600;2022-12-07T15:01:54;101725.75;;;6.18;84.00
75006;BME280;63553;51.814;4.600;2022-12-07T15:04:20;101726.31;;;6.30;86.35
75006;BME280;63553;51.814;4.600;2022-12-07T15:06:59;101724.56;;;5.98;83.37
75006;BME280;63553;51.814;4.600;2022-12-07T15:09:25;101724.56;;;5.93;84.37